createdAt,value
2019-02-28T00:02:25.801Z,16.03
2019-02-28T00:04:55.731Z,16.30
2019-02-28T00:07:25.889Z,16.37
2019-02-28T00:09:57.379Z,16.50
2019-02-28T00:12:27.231Z,17.10
2019-02-28T00:14:58.640Z,16.10
2019-02-28T00:17:28.756Z,17.40
2019-02-28T00:19:58.728Z,17.20
2019-02-28T00:22:29.554Z,17.97
2019-02-28T00:25:01.123Z,17.20
2019-02-28T00:27:31.162Z,18.63
2019-02-28T00:30:01.377Z,18.00
2019-02-28T00:32:31.250Z,18.17
2019-02-28T00:35:01.149Z,17.03
2019-02-28T00:37:31.035Z,18.03
2019-02-28T00:40:00.870Z,17.27
2019-02-28T00:42:30.959Z,19.10
2019-02-28T00:45:02.361Z,18.83
2019-02-28T00:47:32.278Z,20.00
2019-02-28T00:50:02.047Z,20.20
2019-02-28T00:52:35.195Z,20.57
2019-02-28T00:55:03.580Z,21.00
2019-02-28T00:57:33.737Z,21.17
2019-02-28T01:00:05.566Z,21.37
2019-02-28T01:02:35.291Z,21.67
2019-02-28T01:05:06.079Z,21.90
2019-02-28T01:07:36.060Z,22.83
2019-02-28T01:10:07.656Z,23.13
2019-02-28T01:12:37.433Z,22.97
2019-02-28T01:15:10.036Z,22.33
2019-02-28T01:17:39.899Z,24.27
2019-02-28T01:20:14.997Z,23.93
2019-02-28T01:22:42.693Z,23.50
2019-02-28T01:25:12.968Z,25.10
2019-02-28T01:27:42.840Z,24.50
2019-02-28T01:30:12.842Z,25.70
2019-02-28T01:32:42.665Z,25.80
2019-02-28T01:35:13.679Z,25.00
2019-02-28T01:37:43.818Z,25.43
2019-02-28T01:40:15.154Z,24.00
2019-02-28T01:42:45.369Z,25.10
2019-02-28T01:45:15.236Z,23.80
2019-02-28T01:47:45.071Z,24.63
2019-02-28T01:50:14.960Z,25.40
2019-02-28T01:52:46.136Z,25.13
2019-02-28T01:55:16.125Z,25.20
2019-02-28T01:57:46.320Z,25.40
2019-02-28T02:00:16.262Z,24.47
2019-02-28T02:02:46.085Z,24.10
2019-02-28T02:05:16.947Z,25.87
2019-02-28T02:07:48.051Z,25.47
2019-02-28T02:10:21.225Z,23.50
2019-02-28T02:12:51.762Z,24.27
2019-02-28T02:15:21.700Z,22.40
2019-02-28T02:17:51.606Z,23.87
2019-02-28T02:20:23.487Z,23.67
2019-02-28T02:22:53.985Z,23.93
2019-02-28T02:25:23.827Z,25.07
2019-02-28T02:27:54.046Z,21.70
2019-02-28T02:30:24.026Z,22.57
2019-02-28T02:32:53.917Z,22.93
2019-02-28T02:35:23.802Z,23.33
2019-02-28T02:37:53.751Z,23.77
2019-02-28T02:40:24.316Z,23.60
2019-02-28T02:42:54.218Z,24.87
2019-02-28T02:45:23.964Z,25.23
2019-02-28T02:47:53.802Z,23.93
2019-02-28T02:50:23.613Z,25.23
2019-02-28T02:52:53.442Z,24.33
2019-02-28T02:55:27.798Z,26.43
2019-02-28T02:57:54.879Z,26.77
2019-02-28T03:00:25.041Z,25.63
2019-02-28T03:02:54.863Z,26.37
2019-02-28T03:05:25.098Z,26.87
2019-02-28T03:07:59.506Z,27.07
2019-02-28T03:10:26.523Z,28.23
2019-02-28T03:12:56.666Z,29.47
2019-02-28T03:15:27.455Z,26.83
2019-02-28T03:17:57.258Z,28.70
2019-02-28T03:20:27.191Z,29.30
2019-02-28T03:22:56.962Z,28.23
2019-02-28T03:25:28.305Z,28.23
2019-02-28T03:27:58.316Z,27.90
2019-02-28T03:30:32.327Z,30.63
2019-02-28T03:32:59.674Z,28.40
2019-02-28T03:35:40.576Z,29.57
2019-02-28T03:38:01.158Z,28.43
2019-02-28T03:40:30.996Z,31.00
2019-02-28T03:43:05.513Z,29.80
2019-02-28T03:45:35.168Z,29.23
2019-02-28T03:48:03.840Z,29.80
2019-02-28T03:50:33.803Z,32.20
2019-02-28T03:53:03.656Z,31.90
2019-02-28T03:55:40.119Z,29.57
2019-02-28T03:58:05.853Z,32.17
2019-02-28T04:00:36.964Z,32.03
2019-02-28T04:03:06.798Z,29.93
2019-02-28T04:05:36.728Z,33.37
2019-02-28T04:08:06.586Z,32.40
2019-02-28T04:10:36.478Z,33.57
2019-02-28T04:13:06.291Z,34.50
2019-02-28T04:15:36.008Z,34.03
2019-02-28T04:18:07.550Z,34.43
2019-02-28T04:20:38.079Z,35.43
2019-02-28T04:23:07.875Z,33.60
2019-02-28T04:25:37.682Z,35.43
2019-02-28T04:28:07.495Z,35.33
2019-02-28T04:30:42.408Z,33.70
2019-02-28T04:33:08.951Z,34.27
2019-02-28T04:35:38.803Z,35.37
2019-02-28T04:38:08.971Z,35.73
2019-02-28T04:40:38.723Z,34.97
2019-02-28T04:43:10.121Z,30.93
2019-02-28T04:45:40.154Z,33.87
2019-02-28T04:48:13.697Z,39.70
2019-02-28T04:50:41.644Z,40.27
2019-02-28T04:53:11.564Z,37.37
2019-02-28T04:55:41.466Z,37.73
2019-02-28T04:58:11.329Z,40.33
2019-02-28T05:00:41.242Z,37.63
2019-02-28T05:03:11.427Z,37.73
2019-02-28T05:05:41.355Z,35.07
2019-02-28T05:08:11.194Z,35.17
2019-02-28T05:10:41.077Z,37.30
2019-02-28T05:13:11.373Z,36.80
2019-02-28T05:15:42.971Z,39.30
2019-02-28T05:18:13.485Z,37.37
2019-02-28T05:20:45.926Z,37.40
2019-02-28T05:23:15.956Z,36.57
2019-02-28T05:25:45.884Z,36.57
2019-02-28T05:28:15.985Z,37.33
2019-02-28T05:30:45.847Z,38.03
2019-02-28T05:33:15.678Z,35.53
2019-02-28T05:35:45.746Z,37.10
2019-02-28T05:38:20.702Z,39.70
2019-02-28T05:40:47.613Z,39.77
2019-02-28T05:43:17.532Z,38.30
2019-02-28T05:45:49.487Z,39.20
2019-02-28T05:48:18.974Z,37.43
2019-02-28T05:50:53.021Z,40.13
2019-02-28T05:53:20.279Z,38.77
2019-02-28T05:55:51.203Z,37.57
2019-02-28T05:58:21.026Z,38.77
2019-02-28T06:00:50.836Z,40.30
2019-02-28T06:03:20.775Z,38.50
2019-02-28T06:05:50.696Z,39.20
2019-02-28T06:08:20.541Z,43.20
2019-02-28T06:10:50.495Z,37.37
2019-02-28T06:13:21.444Z,40.40
2019-02-28T06:15:51.638Z,39.17
2019-02-28T06:18:21.489Z,41.10
2019-02-28T06:20:52.222Z,39.10
2019-02-28T06:23:22.056Z,44.97
2019-02-28T06:25:51.922Z,42.77
2019-02-28T06:28:21.621Z,42.30
2019-02-28T06:30:51.924Z,42.70
2019-02-28T06:33:21.743Z,40.87
2019-02-28T06:35:53.538Z,42.77
2019-02-28T06:38:23.429Z,39.07
2019-02-28T06:40:53.294Z,39.40
2019-02-28T06:43:23.163Z,42.97
2019-02-28T06:45:54.073Z,41.83
2019-02-28T06:48:26.564Z,41.30
2019-02-28T06:50:55.788Z,42.20
2019-02-28T06:53:26.649Z,42.27
2019-02-28T06:55:56.480Z,44.47
2019-02-28T06:58:26.351Z,43.23
2019-02-28T07:00:56.286Z,43.87
2019-02-28T07:03:26.492Z,47.20
2019-02-28T07:05:57.662Z,47.60
2019-02-28T07:08:28.996Z,45.40
2019-02-28T07:10:58.972Z,44.90
2019-02-28T07:13:28.805Z,44.67
2019-02-28T07:15:59.838Z,45.13
2019-02-28T07:18:29.639Z,44.70
2019-02-28T07:20:59.697Z,42.80
2019-02-28T07:23:31.011Z,42.53
2019-02-28T07:26:00.907Z,43.07
2019-02-28T07:28:36.285Z,43.43
2019-02-28T07:31:02.371Z,42.80
2019-02-28T07:33:32.164Z,44.60
2019-02-28T07:36:02.002Z,42.07
2019-02-28T07:38:32.095Z,45.30
2019-02-28T07:41:01.986Z,45.20
2019-02-28T07:43:31.846Z,45.13
2019-02-28T07:46:04.513Z,41.93
2019-02-28T07:48:33.342Z,44.17
2019-02-28T07:51:03.259Z,47.90
2019-02-28T07:53:33.155Z,47.77
2019-02-28T07:56:03.866Z,51.80
2019-02-28T07:58:34.922Z,47.40
2019-02-28T08:01:04.959Z,47.90
2019-02-28T08:03:34.757Z,48.47
2019-02-28T08:06:05.702Z,44.87
2019-02-28T08:08:35.661Z,48.57
2019-02-28T08:11:05.602Z,47.03
2019-02-28T08:13:37.722Z,48.00
2019-02-28T08:16:07.349Z,44.80
2019-02-28T08:18:37.228Z,46.73
2019-02-28T08:21:08.750Z,46.87
2019-02-28T08:23:38.598Z,51.80
2019-02-28T08:26:08.442Z,44.57
2019-02-28T08:28:38.915Z,45.00
2019-02-28T08:31:08.831Z,44.43
2019-02-28T08:33:38.688Z,49.27
2019-02-28T08:36:11.814Z,48.83
2019-02-28T08:38:40.422Z,51.80
2019-02-28T08:41:10.254Z,47.20
2019-02-28T08:43:40.496Z,46.03
2019-02-28T08:46:13.606Z,44.93
2019-02-28T08:48:42.231Z,49.70
2019-02-28T08:51:12.093Z,50.07
2019-02-28T08:53:41.949Z,47.23
2019-02-28T08:56:14.139Z,45.03
2019-02-28T08:58:43.338Z,42.57
2019-02-28T09:01:13.267Z,43.93
2019-02-28T09:03:43.098Z,43.57
2019-02-28T09:06:13.033Z,44.57
2019-02-28T09:08:42.964Z,43.47
2019-02-28T09:11:13.129Z,45.43
2019-02-28T09:13:43.652Z,45.17
2019-02-28T09:16:13.578Z,46.40
2019-02-28T09:18:44.778Z,43.83
2019-02-28T09:21:15.430Z,47.50
2019-02-28T09:23:46.746Z,44.73
2019-02-28T09:26:17.604Z,47.37
2019-02-28T09:28:48.306Z,42.67
2019-02-28T09:31:18.223Z,46.63
2019-02-28T09:33:48.046Z,48.23
2019-02-28T09:36:20.842Z,46.67
2019-02-28T09:38:56.801Z,47.60
2019-02-28T09:41:21.175Z,47.10
2019-02-28T09:43:51.450Z,47.23
2019-02-28T09:46:21.276Z,45.83
2019-02-28T09:48:52.251Z,44.13
2019-02-28T09:51:21.997Z,47.50
2019-02-28T09:53:51.831Z,44.87
2019-02-28T09:56:21.752Z,45.80
2019-02-28T09:58:51.684Z,45.67
2019-02-28T10:01:24.452Z,46.30
2019-02-28T10:03:55.350Z,47.07
2019-02-28T10:06:24.726Z,45.40
2019-02-28T10:08:54.914Z,47.03
2019-02-28T10:11:24.728Z,46.10
2019-02-28T10:13:54.640Z,50.93
2019-02-28T10:16:24.476Z,48.57
2019-02-28T10:18:54.355Z,47.23
2019-02-28T10:21:25.456Z,47.47
2019-02-28T10:23:57.093Z,50.83
2019-02-28T10:26:27.782Z,52.10
2019-02-28T10:28:57.627Z,48.20
2019-02-28T10:31:36.273Z,50.30
2019-02-28T10:33:59.126Z,49.27
2019-02-28T10:36:28.957Z,49.63
2019-02-28T10:38:58.937Z,48.73
2019-02-28T10:41:31.110Z,51.77
2019-02-28T10:44:00.610Z,50.17
2019-02-28T10:46:30.430Z,47.70
2019-02-28T10:49:00.296Z,45.77
2019-02-28T10:51:30.173Z,50.77
2019-02-28T10:54:00.053Z,50.27
2019-02-28T10:56:32.012Z,50.87
2019-02-28T10:59:01.732Z,52.90
2019-02-28T11:01:31.588Z,49.00
2019-02-28T11:04:01.403Z,56.00
2019-02-28T11:06:31.249Z,55.60
2019-02-28T11:09:01.239Z,53.33
2019-02-28T11:11:32.708Z,54.17
2019-02-28T11:14:03.965Z,52.27
2019-02-28T11:16:36.087Z,53.27
2019-02-28T11:19:06.151Z,53.93
2019-02-28T11:21:35.986Z,54.30
2019-02-28T11:24:06.196Z,52.13
2019-02-28T11:26:36.028Z,49.00
2019-02-28T11:29:05.895Z,51.50
2019-02-28T11:31:35.779Z,53.67
2019-02-28T11:34:05.644Z,48.83
2019-02-28T11:36:35.756Z,49.10
2019-02-28T11:39:07.129Z,55.30
2019-02-28T11:41:37.053Z,50.33
2019-02-28T11:44:09.214Z,50.20
2019-02-28T11:46:38.814Z,52.13
2019-02-28T11:49:09.044Z,51.07
2019-02-28T11:51:38.900Z,52.37
2019-02-28T11:54:12.238Z,52.07
2019-02-28T11:56:40.436Z,52.40
2019-02-28T11:59:10.302Z,50.70
2019-02-28T12:01:42.474Z,48.17
2019-02-28T12:04:11.676Z,49.60
2019-02-28T12:06:41.526Z,49.37
2019-02-28T12:09:11.637Z,47.73
2019-02-28T12:11:41.629Z,44.37
2019-02-28T12:14:11.482Z,46.60
2019-02-28T12:16:41.452Z,47.93
2019-02-28T12:19:12.519Z,47.30
2019-02-28T12:21:42.802Z,46.93
2019-02-28T12:24:12.623Z,47.33
2019-02-28T12:26:42.767Z,43.80
2019-02-28T12:29:13.792Z,44.07
2019-02-28T12:31:43.717Z,42.90
2019-02-28T12:34:15.109Z,44.50
2019-02-28T12:36:46.324Z,45.38
2019-02-28T12:39:16.757Z,44.53
2019-02-28T12:41:46.870Z,44.43
2019-02-28T12:44:16.713Z,47.20
2019-02-28T12:46:46.515Z,45.73
2019-02-28T12:49:21.809Z,44.65
2019-02-28T12:51:48.298Z,43.60
2019-02-28T12:54:18.146Z,46.37
2019-02-28T12:56:48.695Z,41.73
2019-02-28T12:59:18.915Z,43.17
2019-02-28T13:01:48.844Z,42.55
2019-02-28T13:04:20.133Z,47.75
2019-02-28T13:06:50.046Z,49.80
2019-02-28T13:09:19.944Z,49.43
2019-02-28T13:11:49.778Z,45.17
2019-02-28T13:14:19.599Z,46.57
2019-02-28T13:16:49.417Z,48.45
2019-02-28T13:19:21.020Z,45.65
2019-02-28T13:21:50.851Z,49.53
2019-02-28T13:24:20.626Z,48.80
2019-02-28T13:26:50.407Z,49.35
2019-02-28T13:29:22.064Z,50.58
2019-02-28T13:31:51.852Z,52.30
2019-02-28T13:34:24.953Z,53.30
2019-02-28T13:36:54.207Z,49.20
2019-02-28T13:39:27.481Z,48.57
2019-02-28T13:41:58.668Z,50.60
2019-02-28T13:44:31.633Z,52.47
2019-02-28T13:47:00.276Z,49.27
2019-02-28T13:49:30.110Z,49.48
2019-02-28T13:51:59.831Z,49.63
2019-02-28T13:54:29.887Z,50.67
2019-02-28T13:56:59.742Z,52.27
2019-02-28T13:59:31.885Z,48.83
2019-02-28T14:02:01.288Z,46.33
2019-02-28T14:04:31.347Z,43.90
2019-02-28T14:07:01.224Z,48.10
2019-02-28T14:09:31.068Z,44.53
2019-02-28T14:12:00.922Z,45.23
2019-02-28T14:14:30.809Z,46.30
2019-02-28T14:17:01.302Z,49.30
2019-02-28T14:19:32.984Z,46.30
2019-02-28T14:22:02.791Z,47.27
2019-02-28T14:24:32.987Z,46.40
2019-02-28T14:27:02.835Z,50.03
2019-02-28T14:29:33.004Z,46.00
2019-02-28T14:32:04.619Z,49.53
2019-02-28T14:34:35.672Z,49.20
2019-02-28T14:37:05.465Z,50.05
2019-02-28T14:39:35.740Z,48.63
2019-02-28T14:42:06.699Z,48.92
2019-02-28T14:44:37.012Z,51.63
2019-02-28T14:47:06.812Z,53.23
2019-02-28T14:49:36.800Z,51.30
2019-02-28T14:52:06.771Z,53.58
2019-02-28T14:54:36.486Z,52.15
2019-02-28T14:57:06.273Z,51.40
2019-02-28T14:59:35.997Z,52.23
2019-02-28T15:02:06.098Z,50.83
2019-02-28T15:04:39.752Z,51.20
2019-02-28T15:07:08.468Z,54.65
2019-02-28T15:09:38.249Z,50.43
2019-02-28T15:12:08.130Z,52.40
2019-02-28T15:14:40.532Z,52.03
2019-02-28T15:17:09.367Z,62.00
2019-02-28T15:19:39.057Z,52.23
2019-02-28T15:22:08.833Z,55.33
2019-02-28T15:24:40.500Z,48.97
2019-02-28T15:27:10.051Z,53.90
2019-02-28T15:29:39.878Z,54.20
2019-02-28T15:32:09.652Z,54.67
2019-02-28T15:34:41.233Z,49.83
2019-02-28T15:37:10.970Z,53.17
2019-02-28T15:39:40.757Z,55.35
2019-02-28T15:42:10.596Z,53.52
2019-02-28T15:44:40.398Z,52.13
2019-02-28T15:47:10.286Z,49.50
2019-02-28T15:49:41.762Z,52.85
2019-02-28T15:52:12.242Z,51.57
2019-02-28T15:54:42.030Z,50.13
2019-02-28T15:57:12.171Z,49.42
2019-02-28T15:59:41.957Z,54.83
2019-02-28T16:02:12.162Z,52.70
2019-02-28T16:04:41.986Z,55.63
2019-02-28T16:07:11.718Z,51.73
2019-02-28T16:09:41.474Z,51.17
2019-02-28T16:12:15.195Z,51.57
2019-02-28T16:14:45.067Z,52.30
2019-02-28T16:17:15.007Z,54.40
2019-02-28T16:19:44.794Z,53.10
2019-02-28T16:22:18.162Z,53.37
2019-02-28T16:24:46.453Z,53.05
2019-02-28T16:27:16.267Z,52.50
2019-02-28T16:29:46.007Z,55.83
2019-02-28T16:32:15.882Z,53.03
2019-02-28T16:34:45.699Z,57.90
2019-02-28T16:37:15.463Z,54.93
2019-02-28T16:39:45.264Z,54.67
2019-02-28T16:42:15.309Z,54.80
2019-02-28T16:44:44.985Z,52.33
2019-02-28T16:47:14.850Z,55.53
2019-02-28T16:49:45.215Z,56.50
2019-02-28T16:52:15.131Z,50.97
2019-02-28T16:54:44.841Z,55.57
2019-02-28T16:57:14.726Z,47.53
2019-02-28T16:59:44.557Z,52.57
2019-02-28T17:02:14.714Z,52.07
2019-02-28T17:04:44.526Z,56.13
2019-02-28T17:07:14.240Z,56.83
2019-02-28T17:09:44.441Z,55.23
2019-02-28T17:12:32.427Z,52.80
2019-02-28T17:15:02.458Z,55.73
2019-02-28T17:17:43.491Z,57.10
2019-02-28T17:20:14.458Z,53.17
2019-02-28T17:22:44.275Z,56.20
2019-02-28T17:25:14.290Z,54.40
2019-02-28T17:27:53.249Z,54.67
2019-02-28T17:30:40.889Z,52.97
2019-02-28T17:33:10.573Z,55.20
2019-02-28T17:35:40.738Z,54.27
2019-02-28T17:38:10.621Z,54.47
2019-02-28T17:40:40.440Z,58.53
2019-02-28T17:43:10.346Z,51.83
2019-02-28T17:45:40.183Z,57.60
2019-02-28T17:48:49.598Z,56.13
2019-02-28T17:51:41.305Z,50.60
2019-02-28T17:54:46.512Z,56.20
2019-02-28T17:57:48.777Z,50.90
2019-02-28T18:00:52.768Z,53.77
2019-02-28T18:03:58.494Z,50.87
2019-02-28T18:07:06.808Z,45.60
2019-02-28T18:09:58.990Z,44.50
2019-02-28T18:12:59.889Z,37.83
2019-02-28T18:15:47.206Z,35.63
2019-02-28T18:18:50.360Z,33.07
2019-02-28T18:22:12.805Z,35.63
2019-02-28T18:25:18.347Z,31.70
2019-02-28T18:28:18.879Z,28.53
2019-02-28T18:31:19.048Z,26.63
2019-02-28T18:34:07.714Z,25.70
2019-02-28T18:36:40.255Z,25.43
2019-02-28T18:39:11.567Z,24.47
2019-02-28T18:41:42.283Z,23.63
2019-02-28T18:44:13.067Z,23.90
2019-02-28T18:46:42.882Z,24.80
2019-02-28T18:49:12.766Z,25.00
2019-02-28T18:51:42.926Z,25.70
2019-02-28T18:54:12.729Z,22.75
2019-02-28T18:56:42.961Z,23.13
2019-02-28T18:59:12.823Z,25.00
2019-02-28T19:01:42.622Z,20.33
2019-02-28T19:04:12.348Z,27.60
2019-02-28T19:06:42.155Z,24.87
2019-02-28T19:09:22.689Z,26.93
2019-02-28T19:11:53.101Z,26.33
2019-02-28T19:14:22.982Z,26.37
2019-02-28T19:16:53.193Z,24.13
2019-02-28T19:19:22.951Z,28.90
2019-02-28T19:21:53.799Z,26.80
2019-02-28T19:24:23.873Z,30.07
2019-02-28T19:26:53.656Z,30.87
2019-02-28T19:29:23.382Z,32.40
2019-02-28T19:31:53.379Z,30.63
2019-02-28T19:34:23.207Z,36.03
2019-02-28T19:36:52.923Z,34.30
2019-02-28T19:39:22.770Z,33.67
2019-02-28T19:41:52.652Z,33.77
2019-02-28T19:44:22.344Z,34.43
2019-02-28T19:46:52.052Z,35.70
2019-02-28T19:49:21.823Z,36.97
2019-02-28T19:51:51.626Z,36.63
2019-02-28T19:54:21.489Z,37.53
2019-02-28T19:56:51.659Z,37.27
2019-02-28T19:59:21.704Z,39.43
2019-02-28T20:01:51.553Z,38.27
2019-02-28T20:04:21.355Z,39.83
2019-02-28T20:06:51.074Z,40.03
2019-02-28T20:09:20.891Z,37.73
2019-02-28T20:11:50.716Z,38.73
2019-02-28T20:14:20.555Z,42.13
2019-02-28T20:16:50.442Z,38.83
2019-02-28T20:19:20.505Z,38.80
2019-02-28T20:21:50.324Z,40.55
2019-02-28T20:24:20.101Z,41.20
2019-02-28T20:26:50.106Z,39.57
2019-02-28T20:29:19.854Z,39.40
2019-02-28T20:31:49.616Z,41.03
2019-02-28T20:34:19.508Z,39.57
2019-02-28T20:36:49.192Z,40.83
2019-02-28T20:39:19.370Z,42.10
2019-02-28T20:41:49.175Z,40.40
2019-02-28T20:44:18.996Z,39.73
2019-02-28T20:46:48.758Z,43.83
2019-02-28T20:49:18.562Z,40.73
2019-02-28T20:51:54.846Z,42.67
2019-02-28T20:54:20.176Z,44.37
2019-02-28T20:56:49.915Z,43.73
2019-02-28T20:59:19.788Z,43.80
2019-02-28T21:01:50.010Z,43.60
2019-02-28T21:04:19.685Z,38.80
2019-02-28T21:06:49.583Z,38.87
2019-02-28T21:09:19.565Z,39.37
2019-02-28T21:11:49.429Z,39.33
2019-02-28T21:14:19.294Z,37.87
2019-02-28T21:16:49.569Z,38.97
2019-02-28T21:19:20.303Z,39.60
2019-02-28T21:21:50.144Z,39.47
2019-02-28T21:24:19.881Z,37.13
2019-02-28T21:26:49.686Z,38.87
2019-02-28T21:29:19.775Z,39.67
2019-02-28T21:31:49.810Z,38.23
2019-02-28T21:34:19.623Z,36.97
2019-02-28T21:36:49.556Z,36.63
2019-02-28T21:39:19.368Z,35.77
2019-02-28T21:41:50.332Z,36.80
2019-02-28T21:44:20.100Z,36.00
2019-02-28T21:46:49.977Z,34.80
2019-02-28T21:49:19.690Z,35.77
2019-02-28T21:51:49.399Z,33.97
2019-02-28T21:54:19.431Z,32.63
2019-02-28T21:56:49.219Z,33.17
2019-02-28T21:59:19.134Z,32.17
2019-02-28T22:01:48.988Z,32.27
2019-02-28T22:04:18.824Z,31.97
2019-02-28T22:06:48.544Z,31.10
2019-02-28T22:09:18.315Z,31.33
2019-02-28T22:11:48.031Z,30.57
2019-02-28T22:14:17.783Z,30.20
2019-02-28T22:16:47.574Z,31.07
2019-02-28T22:19:17.312Z,31.13
2019-02-28T22:21:47.121Z,30.83
2019-02-28T22:24:16.940Z,33.47
2019-02-28T22:26:46.778Z,33.37
2019-02-28T22:29:16.552Z,33.47
2019-02-28T22:32:11.559Z,31.97
2019-02-28T22:34:45.285Z,32.83
2019-02-28T22:37:15.106Z,33.13
2019-02-28T22:39:44.821Z,32.87
2019-02-28T22:42:21.929Z,32.63
2019-02-28T22:44:46.050Z,32.63
2019-02-28T22:47:15.949Z,34.03
2019-02-28T22:49:46.754Z,31.63
2019-02-28T22:52:16.553Z,31.70
2019-02-28T22:54:46.324Z,32.67
2019-02-28T22:57:20.246Z,33.40
2019-02-28T22:59:50.317Z,34.10
2019-02-28T23:02:20.719Z,31.53
2019-02-28T23:04:50.422Z,32.63
2019-02-28T23:07:20.174Z,29.50
2019-02-28T23:09:50.059Z,30.60
2019-02-28T23:12:19.887Z,30.53
2019-02-28T23:14:49.596Z,29.50
2019-02-28T23:17:19.374Z,30.70
2019-02-28T23:19:49.432Z,28.40
2019-02-28T23:22:19.304Z,28.13
2019-02-28T23:24:49.044Z,28.43
2019-02-28T23:27:21.638Z,26.20
2019-02-28T23:30:13.569Z,25.63
2019-02-28T23:32:56.367Z,25.83
2019-02-28T23:35:38.326Z,25.57
2019-02-28T23:38:09.088Z,25.50
2019-02-28T23:40:38.860Z,24.43
2019-02-28T23:43:08.674Z,25.97
2019-02-28T23:45:38.583Z,25.10
2019-02-28T23:48:08.475Z,24.83
2019-02-28T23:50:38.339Z,23.13
2019-02-28T23:53:08.457Z,23.73
2019-02-28T23:55:38.948Z,22.90
2019-02-28T23:58:08.792Z,25.20
